sensor_id;sensor_type;location;lat;lon;timestamp;P1;durP1;ratioP1;P2;durP2;ratioP2
53010;SDS011;42803;55.762;38.084;2023-02-07T00:01:49;15.85;;;7.85;;
53010;SDS011;42803;55.762;38.084;2023-02-07T00:04:18;15.65;;;7.72;;
53010;SDS011;42803;55.762;38.084;2023-02-07T00:06:47;16.38;;;7.90;;
53010;SDS011;42803;55.762;38.084;2023-02-07T00:09:16;16.27;;;7.32;;
53010;SDS011;42803;55.762;38.084;2023-02-07T00:11:46;18.52;;;8.57;;
53010;SDS011;42803;55.762;38.084;2023-02-07T00:14:15;13.15;;;6.68;;
53010;SDS011;42803;55.762;38.084;2023-02-07T00:16:44;17.98;;;7.72;;
53010;SDS011;42803;55.762;38.084;2023-02-07T00:19:14;19.45;;;8.50;;
53010;SDS011;42803;55.762;38.084;2023-02-07T00:21:43;22.00;;;10.00;;
53010;SDS011;42803;55.762;38.084;2023-02-07T00:24:12;21.45;;;9.02;;
53010;SDS011;42803;55.762;38.084;2023-02-07T00:26:41;17.92;;;8.95;;
53010;SDS011;42803;55.762;38.084;2023-02-07T00:29:14;18.73;;;9.25;;
53010;SDS011;42803;55.762;38.084;2023-02-07T00:31:43;23.92;;;8.30;;
53010;SDS011;42803;55.762;38.084;2023-02-07T00:34:13;18.27;;;8.55;;
53010;SDS011;42803;55.762;38.084;2023-02-07T00:36:43;17.73;;;9.60;;
53010;SDS011;42803;55.762;38.084;2023-02-07T00:39:13;19.77;;;10.50;;
53010;SDS011;42803;55.762;38.084;2023-02-07T00:41:43;30.77;;;14.82;;
53010;SDS011;42803;55.762;38.084;2023-02-07T00:44:14;24.88;;;10.82;;
53010;SDS011;42803;55.762;38.084;2023-02-07T00:46:44;23.88;;;12.20;;
53010;SDS011;42803;55.762;38.084;2023-02-07T00:49:13;23.33;;;10.77;;
53010;SDS011;42803;55.762;38.084;2023-02-07T00:51:43;18.23;;;9.05;;
53010;SDS011;42803;55.762;38.084;2023-02-07T00:54:12;18.13;;;8.60;;
53010;SDS011;42803;55.762;38.084;2023-02-07T00:56:43;16.42;;;8.73;;
53010;SDS011;42803;55.762;38.084;2023-02-07T00:59:12;20.63;;;9.60;;
53010;SDS011;42803;55.762;38.084;2023-02-07T01:01:42;15.13;;;7.55;;
53010;SDS011;42803;55.762;38.084;2023-02-07T01:04:11;12.65;;;7.25;;
53010;SDS011;42803;55.762;38.084;2023-02-07T01:06:40;15.30;;;8.30;;
53010;SDS011;42803;55.762;38.084;2023-02-07T01:09:09;14.43;;;7.50;;
53010;SDS011;42803;55.762;38.084;2023-02-07T01:11:39;11.27;;;6.97;;
53010;SDS011;42803;55.762;38.084;2023-02-07T01:14:08;14.55;;;8.10;;
53010;SDS011;42803;55.762;38.084;2023-02-07T01:16:37;12.23;;;6.60;;
53010;SDS011;42803;55.762;38.084;2023-02-07T01:19:08;14.20;;;6.72;;
53010;SDS011;42803;55.762;38.084;2023-02-07T01:21:38;18.80;;;7.30;;
53010;SDS011;42803;55.762;38.084;2023-02-07T01:24:07;14.50;;;7.05;;
53010;SDS011;42803;55.762;38.084;2023-02-07T01:26:37;12.38;;;7.00;;
53010;SDS011;42803;55.762;38.084;2023-02-07T01:29:06;14.65;;;6.85;;
53010;SDS011;42803;55.762;38.084;2023-02-07T01:31:37;12.25;;;6.47;;
53010;SDS011;42803;55.762;38.084;2023-02-07T01:34:10;13.68;;;6.75;;
53010;SDS011;42803;55.762;38.084;2023-02-07T01:36:40;10.45;;;6.18;;
53010;SDS011;42803;55.762;38.084;2023-02-07T01:39:11;13.05;;;6.13;;
53010;SDS011;42803;55.762;38.084;2023-02-07T01:41:40;13.25;;;6.65;;
53010;SDS011;42803;55.762;38.084;2023-02-07T01:47:14;10.02;;;6.35;;
53010;SDS011;42803;55.762;38.084;2023-02-07T01:49:47;10.82;;;6.50;;
53010;SDS011;42803;55.762;38.084;2023-02-07T01:52:19;13.35;;;5.85;;
53010;SDS011;42803;55.762;38.084;2023-02-07T01:54:54;14.13;;;6.63;;
53010;SDS011;42803;55.762;38.084;2023-02-07T01:57:28;10.77;;;6.45;;
53010;SDS011;42803;55.762;38.084;2023-02-07T01:59:57;13.18;;;5.97;;
53010;SDS011;42803;55.762;38.084;2023-02-07T02:02:31;15.55;;;6.70;;
53010;SDS011;42803;55.762;38.084;2023-02-07T02:05:04;14.50;;;7.30;;
53010;SDS011;42803;55.762;38.084;2023-02-07T02:07:35;13.43;;;6.55;;
53010;SDS011;42803;55.762;38.084;2023-02-07T02:10:08;12.52;;;6.75;;
53010;SDS011;42803;55.762;38.084;2023-02-07T02:12:49;12.40;;;6.72;;
53010;SDS011;42803;55.762;38.084;2023-02-07T02:15:29;14.13;;;6.50;;
53010;SDS011;42803;55.762;38.084;2023-02-07T02:18:16;12.57;;;6.45;;
53010;SDS011;42803;55.762;38.084;2023-02-07T02:21:20;14.90;;;7.50;;
53010;SDS011;42803;55.762;38.084;2023-02-07T02:27:28;17.08;;;9.32;;
53010;SDS011;42803;55.762;38.084;2023-02-07T02:30:20;17.50;;;9.43;;
53010;SDS011;42803;55.762;38.084;2023-02-07T02:33:30;21.92;;;11.27;;
53010;SDS011;42803;55.762;38.084;2023-02-07T02:36:12;22.30;;;10.02;;
53010;SDS011;42803;55.762;38.084;2023-02-07T02:38:51;19.35;;;10.23;;
53010;SDS011;42803;55.762;38.084;2023-02-07T02:41:26;22.35;;;9.68;;
53010;SDS011;42803;55.762;38.084;2023-02-07T02:44:00;15.63;;;8.48;;
53010;SDS011;42803;55.762;38.084;2023-02-07T02:46:36;19.05;;;8.80;;
53010;SDS011;42803;55.762;38.084;2023-02-07T02:49:10;15.73;;;8.70;;
53010;SDS011;42803;55.762;38.084;2023-02-07T02:51:42;15.73;;;8.82;;
53010;SDS011;42803;55.762;38.084;2023-02-07T02:54:25;17.42;;;9.80;;
53010;SDS011;42803;55.762;38.084;2023-02-07T02:57:02;14.68;;;8.50;;
53010;SDS011;42803;55.762;38.084;2023-02-07T02:59:48;13.63;;;7.67;;
53010;SDS011;42803;55.762;38.084;2023-02-07T03:02:34;12.50;;;7.70;;
53010;SDS011;42803;55.762;38.084;2023-02-07T03:05:14;14.55;;;6.88;;
53010;SDS011;42803;55.762;38.084;2023-02-07T03:07:55;14.85;;;7.00;;
53010;SDS011;42803;55.762;38.084;2023-02-07T03:10:35;13.45;;;7.20;;
53010;SDS011;42803;55.762;38.084;2023-02-07T03:13:14;19.08;;;8.82;;
53010;SDS011;42803;55.762;38.084;2023-02-07T03:15:52;13.23;;;7.78;;
53010;SDS011;42803;55.762;38.084;2023-02-07T03:18:33;16.42;;;8.00;;
53010;SDS011;42803;55.762;38.084;2023-02-07T03:21:15;21.27;;;8.90;;
53010;SDS011;42803;55.762;38.084;2023-02-07T03:23:51;14.02;;;7.35;;
53010;SDS011;42803;55.762;38.084;2023-02-07T03:26:25;13.95;;;8.15;;
53010;SDS011;42803;55.762;38.084;2023-02-07T03:28:56;16.85;;;7.43;;
53010;SDS011;42803;55.762;38.084;2023-02-07T03:31:27;12.95;;;7.40;;
53010;SDS011;42803;55.762;38.084;2023-02-07T03:34:01;14.15;;;7.10;;
53010;SDS011;42803;55.762;38.084;2023-02-07T03:36:38;19.85;;;7.72;;
53010;SDS011;42803;55.762;38.084;2023-02-07T03:39:10;18.70;;;8.47;;
53010;SDS011;42803;55.762;38.084;2023-02-07T03:41:40;15.10;;;7.10;;
53010;SDS011;42803;55.762;38.084;2023-02-07T03:44:13;19.33;;;9.35;;
53010;SDS011;42803;55.762;38.084;2023-02-07T03:46:44;16.77;;;7.40;;
53010;SDS011;42803;55.762;38.084;2023-02-07T03:49:16;13.65;;;6.90;;
53010;SDS011;42803;55.762;38.084;2023-02-07T03:51:47;15.15;;;7.28;;
53010;SDS011;42803;55.762;38.084;2023-02-07T03:54:16;12.77;;;6.57;;
53010;SDS011;42803;55.762;38.084;2023-02-07T03:56:45;13.85;;;7.05;;
53010;SDS011;42803;55.762;38.084;2023-02-07T03:59:15;12.23;;;7.18;;
53010;SDS011;42803;55.762;38.084;2023-02-07T04:01:44;14.13;;;8.02;;
53010;SDS011;42803;55.762;38.084;2023-02-07T04:04:13;14.10;;;7.10;;
53010;SDS011;42803;55.762;38.084;2023-02-07T04:06:42;15.80;;;8.32;;
53010;SDS011;42803;55.762;38.084;2023-02-07T04:09:12;18.48;;;8.27;;
53010;SDS011;42803;55.762;38.084;2023-02-07T04:11:41;15.65;;;7.68;;
53010;SDS011;42803;55.762;38.084;2023-02-07T04:14:10;15.25;;;8.48;;
53010;SDS011;42803;55.762;38.084;2023-02-07T04:16:40;13.57;;;7.72;;
53010;SDS011;42803;55.762;38.084;2023-02-07T04:19:09;15.13;;;6.97;;
53010;SDS011;42803;55.762;38.084;2023-02-07T04:21:38;13.70;;;7.25;;
53010;SDS011;42803;55.762;38.084;2023-02-07T04:24:07;14.13;;;6.35;;
53010;SDS011;42803;55.762;38.084;2023-02-07T04:26:38;13.07;;;6.45;;
53010;SDS011;42803;55.762;38.084;2023-02-07T04:29:07;15.27;;;7.70;;
53010;SDS011;42803;55.762;38.084;2023-02-07T04:31:36;15.35;;;6.63;;
53010;SDS011;42803;55.762;38.084;2023-02-07T04:34:06;14.35;;;7.72;;
53010;SDS011;42803;55.762;38.084;2023-02-07T04:36:35;11.57;;;6.03;;
53010;SDS011;42803;55.762;38.084;2023-02-07T04:39:04;13.70;;;6.75;;
53010;SDS011;42803;55.762;38.084;2023-02-07T04:41:34;13.23;;;6.47;;
53010;SDS011;42803;55.762;38.084;2023-02-07T04:44:04;13.30;;;6.30;;
53010;SDS011;42803;55.762;38.084;2023-02-07T04:46:33;11.48;;;6.57;;
53010;SDS011;42803;55.762;38.084;2023-02-07T04:49:02;12.75;;;6.68;;
53010;SDS011;42803;55.762;38.084;2023-02-07T04:51:32;12.10;;;6.70;;
53010;SDS011;42803;55.762;38.084;2023-02-07T04:54:01;13.93;;;6.03;;
53010;SDS011;42803;55.762;38.084;2023-02-07T04:56:30;10.82;;;5.50;;
53010;SDS011;42803;55.762;38.084;2023-02-07T04:59:02;9.27;;;5.00;;
53010;SDS011;42803;55.762;38.084;2023-02-07T05:01:33;13.18;;;7.03;;
53010;SDS011;42803;55.762;38.084;2023-02-07T05:04:02;13.07;;;6.05;;
53010;SDS011;42803;55.762;38.084;2023-02-07T05:06:31;15.52;;;7.10;;
53010;SDS011;42803;55.762;38.084;2023-02-07T05:09:00;9.85;;;5.70;;
53010;SDS011;42803;55.762;38.084;2023-02-07T05:11:29;11.55;;;5.90;;
53010;SDS011;42803;55.762;38.084;2023-02-07T05:13:58;14.55;;;6.10;;
53010;SDS011;42803;55.762;38.084;2023-02-07T05:16:27;13.95;;;6.70;;
53010;SDS011;42803;55.762;38.084;2023-02-07T05:18:58;12.45;;;5.97;;
53010;SDS011;42803;55.762;38.084;2023-02-07T05:21:27;16.88;;;6.68;;
53010;SDS011;42803;55.762;38.084;2023-02-07T05:23:56;12.68;;;5.95;;
53010;SDS011;42803;55.762;38.084;2023-02-07T05:26:25;13.35;;;5.82;;
53010;SDS011;42803;55.762;38.084;2023-02-07T05:28:54;12.35;;;6.13;;
53010;SDS011;42803;55.762;38.084;2023-02-07T05:31:23;16.25;;;6.68;;
53010;SDS011;42803;55.762;38.084;2023-02-07T05:34:14;25.90;;;8.02;;
53010;SDS011;42803;55.762;38.084;2023-02-07T05:36:43;12.23;;;6.93;;
53010;SDS011;42803;55.762;38.084;2023-02-07T05:39:12;10.23;;;6.05;;
53010;SDS011;42803;55.762;38.084;2023-02-07T05:41:41;15.05;;;6.85;;
53010;SDS011;42803;55.762;38.084;2023-02-07T05:44:10;13.95;;;7.38;;
53010;SDS011;42803;55.762;38.084;2023-02-07T05:46:39;13.77;;;7.03;;
53010;SDS011;42803;55.762;38.084;2023-02-07T05:49:08;14.00;;;7.60;;
53010;SDS011;42803;55.762;38.084;2023-02-07T05:51:39;15.45;;;6.82;;
53010;SDS011;42803;55.762;38.084;2023-02-07T05:54:08;12.75;;;6.93;;
53010;SDS011;42803;55.762;38.084;2023-02-07T05:56:37;13.90;;;7.30;;
53010;SDS011;42803;55.762;38.084;2023-02-07T05:59:07;15.65;;;8.15;;
53010;SDS011;42803;55.762;38.084;2023-02-07T06:01:36;17.55;;;7.97;;
53010;SDS011;42803;55.762;38.084;2023-02-07T06:04:05;15.48;;;8.35;;
53010;SDS011;42803;55.762;38.084;2023-02-07T06:06:34;19.42;;;7.88;;
53010;SDS011;42803;55.762;38.084;2023-02-07T06:09:07;16.75;;;8.63;;
53010;SDS011;42803;55.762;38.084;2023-02-07T06:11:36;16.90;;;7.05;;
53010;SDS011;42803;55.762;38.084;2023-02-07T06:14:05;16.70;;;7.55;;
53010;SDS011;42803;55.762;38.084;2023-02-07T06:16:35;12.57;;;7.15;;
53010;SDS011;42803;55.762;38.084;2023-02-07T06:19:04;17.35;;;8.80;;
53010;SDS011;42803;55.762;38.084;2023-02-07T06:21:33;15.05;;;7.57;;
53010;SDS011;42803;55.762;38.084;2023-02-07T06:24:14;15.80;;;6.40;;
53010;SDS011;42803;55.762;38.084;2023-02-07T06:26:43;14.90;;;7.57;;
53010;SDS011;42803;55.762;38.084;2023-02-07T06:29:13;15.02;;;7.53;;
53010;SDS011;42803;55.762;38.084;2023-02-07T06:31:42;12.07;;;7.93;;
53010;SDS011;42803;55.762;38.084;2023-02-07T06:34:11;15.40;;;7.38;;
53010;SDS011;42803;55.762;38.084;2023-02-07T06:36:40;12.35;;;7.20;;
53010;SDS011;42803;55.762;38.084;2023-02-07T06:39:09;12.02;;;6.75;;
53010;SDS011;42803;55.762;38.084;2023-02-07T06:41:40;15.73;;;7.43;;
53010;SDS011;42803;55.762;38.084;2023-02-07T06:44:09;16.98;;;6.90;;
53010;SDS011;42803;55.762;38.084;2023-02-07T06:46:38;18.85;;;7.60;;
53010;SDS011;42803;55.762;38.084;2023-02-07T06:49:08;14.27;;;7.95;;
53010;SDS011;42803;55.762;38.084;2023-02-07T06:51:38;14.23;;;6.30;;
53010;SDS011;42803;55.762;38.084;2023-02-07T06:54:07;11.32;;;6.22;;
53010;SDS011;42803;55.762;38.084;2023-02-07T06:56:36;13.35;;;6.38;;
53010;SDS011;42803;55.762;38.084;2023-02-07T06:59:07;12.48;;;6.25;;
53010;SDS011;42803;55.762;38.084;2023-02-07T07:01:36;14.60;;;6.25;;
53010;SDS011;42803;55.762;38.084;2023-02-07T07:04:05;12.02;;;6.15;;
53010;SDS011;42803;55.762;38.084;2023-02-07T07:06:34;12.32;;;5.45;;
53010;SDS011;42803;55.762;38.084;2023-02-07T07:09:03;10.82;;;5.85;;
53010;SDS011;42803;55.762;38.084;2023-02-07T07:11:32;11.65;;;5.25;;
53010;SDS011;42803;55.762;38.084;2023-02-07T07:14:02;9.35;;;5.57;;
53010;SDS011;42803;55.762;38.084;2023-02-07T07:16:32;11.57;;;5.30;;
53010;SDS011;42803;55.762;38.084;2023-02-07T07:19:02;13.45;;;6.63;;
53010;SDS011;42803;55.762;38.084;2023-02-07T07:21:31;14.13;;;6.40;;
53010;SDS011;42803;55.762;38.084;2023-02-07T07:24:01;15.18;;;6.40;;
53010;SDS011;42803;55.762;38.084;2023-02-07T07:26:30;10.13;;;5.40;;
53010;SDS011;42803;55.762;38.084;2023-02-07T07:29:15;11.88;;;5.82;;
53010;SDS011;42803;55.762;38.084;2023-02-07T07:31:46;12.10;;;5.50;;
53010;SDS011;42803;55.762;38.084;2023-02-07T07:34:15;8.60;;;4.60;;
53010;SDS011;42803;55.762;38.084;2023-02-07T07:36:44;11.13;;;5.47;;
53010;SDS011;42803;55.762;38.084;2023-02-07T07:39:13;12.45;;;5.47;;
53010;SDS011;42803;55.762;38.084;2023-02-07T07:41:43;11.85;;;6.07;;
53010;SDS011;42803;55.762;38.084;2023-02-07T07:44:27;13.45;;;5.80;;
53010;SDS011;42803;55.762;38.084;2023-02-07T07:46:57;11.80;;;5.78;;
53010;SDS011;42803;55.762;38.084;2023-02-07T07:49:26;11.23;;;5.93;;
53010;SDS011;42803;55.762;38.084;2023-02-07T07:51:56;13.98;;;6.18;;
53010;SDS011;42803;55.762;38.084;2023-02-07T07:54:25;14.68;;;6.35;;
53010;SDS011;42803;55.762;38.084;2023-02-07T07:56:54;12.00;;;6.70;;
53010;SDS011;42803;55.762;38.084;2023-02-07T07:59:23;16.10;;;7.70;;
53010;SDS011;42803;55.762;38.084;2023-02-07T08:01:53;12.68;;;6.63;;
53010;SDS011;42803;55.762;38.084;2023-02-07T08:15:52;13.80;;;7.35;;
53010;SDS011;42803;55.762;38.084;2023-02-07T08:18:21;16.02;;;6.47;;
53010;SDS011;42803;55.762;38.084;2023-02-07T08:20:50;16.17;;;8.30;;
53010;SDS011;42803;55.762;38.084;2023-02-07T08:23:19;13.90;;;6.97;;
53010;SDS011;42803;55.762;38.084;2023-02-07T08:25:48;14.48;;;7.57;;
53010;SDS011;42803;55.762;38.084;2023-02-07T08:28:18;15.38;;;6.90;;
53010;SDS011;42803;55.762;38.084;2023-02-07T08:30:47;14.43;;;6.82;;
53010;SDS011;42803;55.762;38.084;2023-02-07T08:33:18;12.65;;;6.70;;
53010;SDS011;42803;55.762;38.084;2023-02-07T08:35:48;11.95;;;6.22;;
53010;SDS011;42803;55.762;38.084;2023-02-07T08:38:18;11.10;;;5.53;;
53010;SDS011;42803;55.762;38.084;2023-02-07T08:40:47;10.48;;;5.07;;
53010;SDS011;42803;55.762;38.084;2023-02-07T08:43:17;11.05;;;5.43;;
53010;SDS011;42803;55.762;38.084;2023-02-07T08:45:46;9.57;;;5.47;;
53010;SDS011;42803;55.762;38.084;2023-02-07T08:48:17;8.77;;;5.40;;
53010;SDS011;42803;55.762;38.084;2023-02-07T08:50:47;9.07;;;5.68;;
53010;SDS011;42803;55.762;38.084;2023-02-07T08:53:16;14.05;;;5.20;;
53010;SDS011;42803;55.762;38.084;2023-02-07T08:55:45;9.75;;;5.18;;
53010;SDS011;42803;55.762;38.084;2023-02-07T08:58:15;11.52;;;6.65;;
53010;SDS011;42803;55.762;38.084;2023-02-07T09:00:44;10.05;;;5.72;;
53010;SDS011;42803;55.762;38.084;2023-02-07T09:03:13;11.93;;;5.28;;
53010;SDS011;42803;55.762;38.084;2023-02-07T09:05:44;10.82;;;5.40;;
53010;SDS011;42803;55.762;38.084;2023-02-07T09:08:13;9.30;;;5.45;;
53010;SDS011;42803;55.762;38.084;2023-02-07T09:10:43;8.52;;;5.10;;
53010;SDS011;42803;55.762;38.084;2023-02-07T09:13:13;14.63;;;6.50;;
53010;SDS011;42803;55.762;38.084;2023-02-07T09:15:42;9.35;;;5.60;;
53010;SDS011;42803;55.762;38.084;2023-02-07T09:18:11;11.02;;;5.88;;
53010;SDS011;42803;55.762;38.084;2023-02-07T09:20:42;13.45;;;7.25;;
53010;SDS011;42803;55.762;38.084;2023-02-07T09:23:12;14.00;;;7.88;;
53010;SDS011;42803;55.762;38.084;2023-02-07T09:25:48;15.25;;;7.25;;
53010;SDS011;42803;55.762;38.084;2023-02-07T09:28:19;14.23;;;8.05;;
53010;SDS011;42803;55.762;38.084;2023-02-07T09:30:49;13.85;;;7.22;;
53010;SDS011;42803;55.762;38.084;2023-02-07T09:33:19;12.35;;;7.18;;
53010;SDS011;42803;55.762;38.084;2023-02-07T09:35:51;13.93;;;6.82;;
53010;SDS011;42803;55.762;38.084;2023-02-07T09:38:21;12.75;;;6.68;;
53010;SDS011;42803;55.762;38.084;2023-02-07T09:40:52;11.80;;;7.00;;
53010;SDS011;42803;55.762;38.084;2023-02-07T09:43:26;12.23;;;7.13;;
53010;SDS011;42803;55.762;38.084;2023-02-07T09:46:09;12.23;;;7.30;;
53010;SDS011;42803;55.762;38.084;2023-02-07T09:48:45;19.33;;;8.73;;
53010;SDS011;42803;55.762;38.084;2023-02-07T09:51:21;16.35;;;8.50;;
53010;SDS011;42803;55.762;38.084;2023-02-07T09:53:52;17.77;;;7.80;;
53010;SDS011;42803;55.762;38.084;2023-02-07T09:56:26;14.13;;;8.18;;
53010;SDS011;42803;55.762;38.084;2023-02-07T09:58:58;18.58;;;9.05;;
53010;SDS011;42803;55.762;38.084;2023-02-07T10:01:32;16.83;;;8.13;;
53010;SDS011;42803;55.762;38.084;2023-02-07T10:04:07;16.30;;;7.82;;
53010;SDS011;42803;55.762;38.084;2023-02-07T10:06:51;17.00;;;8.80;;
53010;SDS011;42803;55.762;38.084;2023-02-07T10:09:24;20.15;;;8.32;;
53010;SDS011;42803;55.762;38.084;2023-02-07T10:11:56;16.35;;;8.57;;
53010;SDS011;42803;55.762;38.084;2023-02-07T10:14:36;17.70;;;8.98;;
53010;SDS011;42803;55.762;38.084;2023-02-07T10:17:30;19.27;;;9.38;;
53010;SDS011;42803;55.762;38.084;2023-02-07T10:20:15;15.63;;;9.02;;
53010;SDS011;42803;55.762;38.084;2023-02-07T10:23:00;21.15;;;9.50;;
53010;SDS011;42803;55.762;38.084;2023-02-07T10:25:38;15.93;;;7.82;;
53010;SDS011;42803;55.762;38.084;2023-02-07T10:28:25;14.52;;;8.30;;
53010;SDS011;42803;55.762;38.084;2023-02-07T10:31:11;19.13;;;8.02;;
53010;SDS011;42803;55.762;38.084;2023-02-07T10:33:45;14.80;;;8.02;;
53010;SDS011;42803;55.762;38.084;2023-02-07T10:36:16;19.35;;;8.57;;
53010;SDS011;42803;55.762;38.084;2023-02-07T10:38:49;15.88;;;7.50;;
53010;SDS011;42803;55.762;38.084;2023-02-07T10:41:35;11.98;;;6.05;;
53010;SDS011;42803;55.762;38.084;2023-02-07T10:44:08;17.48;;;7.50;;
53010;SDS011;42803;55.762;38.084;2023-02-07T10:46:39;17.10;;;7.25;;
53010;SDS011;42803;55.762;38.084;2023-02-07T10:49:21;16.50;;;7.30;;
53010;SDS011;42803;55.762;38.084;2023-02-07T10:51:54;12.48;;;6.28;;
53010;SDS011;42803;55.762;38.084;2023-02-07T10:54:26;14.30;;;7.22;;
53010;SDS011;42803;55.762;38.084;2023-02-07T10:56:56;11.75;;;7.00;;
53010;SDS011;42803;55.762;38.084;2023-02-07T10:59:31;13.80;;;6.25;;
53010;SDS011;42803;55.762;38.084;2023-02-07T11:07:57;10.27;;;6.43;;
53010;SDS011;42803;55.762;38.084;2023-02-07T11:10:31;12.52;;;5.32;;
53010;SDS011;42803;55.762;38.084;2023-02-07T11:15:36;13.65;;;6.22;;
53010;SDS011;42803;55.762;38.084;2023-02-07T11:18:10;13.05;;;6.95;;
53010;SDS011;42803;55.762;38.084;2023-02-07T11:20:54;7.40;;;4.07;;
53010;SDS011;42803;55.762;38.084;2023-02-07T11:23:23;12.23;;;6.90;;
53010;SDS011;42803;55.762;38.084;2023-02-07T11:25:54;13.27;;;7.00;;
53010;SDS011;42803;55.762;38.084;2023-02-07T11:28:25;13.23;;;6.00;;
53010;SDS011;42803;55.762;38.084;2023-02-07T11:30:57;14.88;;;6.88;;
53010;SDS011;42803;55.762;38.084;2023-02-07T11:33:31;14.65;;;6.82;;
53010;SDS011;42803;55.762;38.084;2023-02-07T11:36:04;15.00;;;7.07;;
53010;SDS011;42803;55.762;38.084;2023-02-07T11:38:38;12.27;;;7.18;;
53010;SDS011;42803;55.762;38.084;2023-02-07T11:41:16;17.58;;;8.38;;
53010;SDS011;42803;55.762;38.084;2023-02-07T11:43:51;12.95;;;6.43;;
53010;SDS011;42803;55.762;38.084;2023-02-07T11:46:34;9.52;;;5.60;;
53010;SDS011;42803;55.762;38.084;2023-02-07T11:49:06;14.13;;;7.68;;
53010;SDS011;42803;55.762;38.084;2023-02-07T11:51:48;12.35;;;6.32;;
53010;SDS011;42803;55.762;38.084;2023-02-07T11:54:19;12.57;;;6.32;;
53010;SDS011;42803;55.762;38.084;2023-02-07T11:56:50;11.13;;;6.32;;
53010;SDS011;42803;55.762;38.084;2023-02-07T11:59:22;12.98;;;7.10;;
53010;SDS011;42803;55.762;38.084;2023-02-07T12:01:55;10.57;;;6.63;;
53010;SDS011;42803;55.762;38.084;2023-02-07T12:04:27;12.15;;;6.75;;
53010;SDS011;42803;55.762;38.084;2023-02-07T12:07:02;11.23;;;6.78;;
53010;SDS011;42803;55.762;38.084;2023-02-07T12:09:34;11.63;;;6.43;;
53010;SDS011;42803;55.762;38.084;2023-02-07T12:12:10;15.13;;;7.05;;
53010;SDS011;42803;55.762;38.084;2023-02-07T12:17:17;10.73;;;6.80;;
53010;SDS011;42803;55.762;38.084;2023-02-07T12:19:53;10.85;;;7.15;;
53010;SDS011;42803;55.762;38.084;2023-02-07T12:22:30;11.73;;;6.28;;
53010;SDS011;42803;55.762;38.084;2023-02-07T12:25:13;18.15;;;9.70;;
53010;SDS011;42803;55.762;38.084;2023-02-07T12:27:49;12.20;;;7.40;;
53010;SDS011;42803;55.762;38.084;2023-02-07T12:32:59;13.07;;;7.57;;
53010;SDS011;42803;55.762;38.084;2023-02-07T12:35:39;15.63;;;8.48;;
53010;SDS011;42803;55.762;38.084;2023-02-07T12:38:24;17.77;;;8.90;;
53010;SDS011;42803;55.762;38.084;2023-02-07T12:40:56;21.77;;;9.15;;
53010;SDS011;42803;55.762;38.084;2023-02-07T12:43:32;16.13;;;9.02;;
53010;SDS011;42803;55.762;38.084;2023-02-07T12:46:09;19.33;;;9.48;;
53010;SDS011;42803;55.762;38.084;2023-02-07T12:51:56;14.85;;;8.35;;
53010;SDS011;42803;55.762;38.084;2023-02-07T12:54:46;18.98;;;8.57;;
53010;SDS011;42803;55.762;38.084;2023-02-07T12:57:30;15.93;;;8.52;;
53010;SDS011;42803;55.762;38.084;2023-02-07T13:02:45;15.07;;;7.43;;
53010;SDS011;42803;55.762;38.084;2023-02-07T13:05:28;18.63;;;9.57;;
53010;SDS011;42803;55.762;38.084;2023-02-07T13:08:11;15.35;;;8.70;;
53010;SDS011;42803;55.762;38.084;2023-02-07T13:10:52;15.57;;;7.88;;
53010;SDS011;42803;55.762;38.084;2023-02-07T13:13:29;18.60;;;9.05;;
53010;SDS011;42803;55.762;38.084;2023-02-07T13:16:03;16.58;;;8.55;;
53010;SDS011;42803;55.762;38.084;2023-02-07T13:18:39;18.45;;;9.55;;
53010;SDS011;42803;55.762;38.084;2023-02-07T13:21:18;18.50;;;8.43;;
53010;SDS011;42803;55.762;38.084;2023-02-07T13:23:55;14.20;;;7.90;;
53010;SDS011;42803;55.762;38.084;2023-02-07T13:26:27;12.50;;;7.88;;
53010;SDS011;42803;55.762;38.084;2023-02-07T13:29:00;16.05;;;8.40;;
53010;SDS011;42803;55.762;38.084;2023-02-07T13:31:35;15.52;;;7.45;;
53010;SDS011;42803;55.762;38.084;2023-02-07T13:34:07;14.68;;;7.68;;
53010;SDS011;42803;55.762;38.084;2023-02-07T13:36:43;15.52;;;7.95;;
53010;SDS011;42803;55.762;38.084;2023-02-07T13:39:18;18.10;;;8.73;;
53010;SDS011;42803;55.762;38.084;2023-02-07T13:41:57;10.07;;;5.82;;
53010;SDS011;42803;55.762;38.084;2023-02-07T13:44:35;17.80;;;9.38;;
53010;SDS011;42803;55.762;38.084;2023-02-07T13:47:13;19.73;;;8.80;;
53010;SDS011;42803;55.762;38.084;2023-02-07T13:50:06;16.52;;;9.30;;
53010;SDS011;42803;55.762;38.084;2023-02-07T13:52:45;22.70;;;9.73;;
53010;SDS011;42803;55.762;38.084;2023-02-07T13:55:23;16.13;;;8.75;;
53010;SDS011;42803;55.762;38.084;2023-02-07T13:57:58;16.10;;;8.63;;
53010;SDS011;42803;55.762;38.084;2023-02-07T14:03:39;18.85;;;9.38;;
53010;SDS011;42803;55.762;38.084;2023-02-07T14:06:12;18.17;;;9.05;;
53010;SDS011;42803;55.762;38.084;2023-02-07T14:08:44;16.60;;;8.18;;
53010;SDS011;42803;55.762;38.084;2023-02-07T14:11:27;15.98;;;9.20;;
53010;SDS011;42803;55.762;38.084;2023-02-07T14:14:05;16.80;;;8.63;;
53010;SDS011;42803;55.762;38.084;2023-02-07T14:16:44;16.38;;;8.07;;
53010;SDS011;42803;55.762;38.084;2023-02-07T14:19:46;14.40;;;8.73;;
53010;SDS011;42803;55.762;38.084;2023-02-07T14:22:20;20.00;;;8.98;;
53010;SDS011;42803;55.762;38.084;2023-02-07T14:28:07;18.50;;;8.40;;
53010;SDS011;42803;55.762;38.084;2023-02-07T14:33:40;14.40;;;7.60;;
53010;SDS011;42803;55.762;38.084;2023-02-07T14:36:31;19.35;;;8.02;;
53010;SDS011;42803;55.762;38.084;2023-02-07T14:39:03;16.75;;;8.10;;
53010;SDS011;42803;55.762;38.084;2023-02-07T14:41:49;15.32;;;9.00;;
53010;SDS011;42803;55.762;38.084;2023-02-07T14:44:22;19.73;;;8.15;;
53010;SDS011;42803;55.762;38.084;2023-02-07T14:46:53;15.00;;;7.72;;
53010;SDS011;42803;55.762;38.084;2023-02-07T14:49:27;13.85;;;7.22;;
53010;SDS011;42803;55.762;38.084;2023-02-07T14:52:02;14.50;;;7.50;;
53010;SDS011;42803;55.762;38.084;2023-02-07T14:54:36;12.93;;;6.95;;
53010;SDS011;42803;55.762;38.084;2023-02-07T14:57:15;15.18;;;7.32;;
53010;SDS011;42803;55.762;38.084;2023-02-07T14:59:56;13.90;;;7.75;;
53010;SDS011;42803;55.762;38.084;2023-02-07T15:02:33;15.68;;;7.78;;
53010;SDS011;42803;55.762;38.084;2023-02-07T15:05:10;15.32;;;8.18;;
53010;SDS011;42803;55.762;38.084;2023-02-07T15:07:47;17.20;;;8.00;;
53010;SDS011;42803;55.762;38.084;2023-02-07T15:10:22;17.65;;;8.45;;
53010;SDS011;42803;55.762;38.084;2023-02-07T15:12:53;14.30;;;7.50;;
53010;SDS011;42803;55.762;38.084;2023-02-07T15:15:24;15.18;;;7.95;;
53010;SDS011;42803;55.762;38.084;2023-02-07T15:17:55;17.65;;;7.65;;
53010;SDS011;42803;55.762;38.084;2023-02-07T15:20:28;14.75;;;7.75;;
53010;SDS011;42803;55.762;38.084;2023-02-07T15:23:01;15.65;;;8.13;;
53010;SDS011;42803;55.762;38.084;2023-02-07T15:25:34;11.30;;;6.88;;
53010;SDS011;42803;55.762;38.084;2023-02-07T15:28:16;14.45;;;6.43;;
53010;SDS011;42803;55.762;38.084;2023-02-07T15:30:59;18.13;;;8.20;;
53010;SDS011;42803;55.762;38.084;2023-02-07T15:33:31;13.75;;;6.47;;
53010;SDS011;42803;55.762;38.084;2023-02-07T15:36:03;12.63;;;7.10;;
53010;SDS011;42803;55.762;38.084;2023-02-07T15:38:34;16.50;;;7.63;;
53010;SDS011;42803;55.762;38.084;2023-02-07T15:41:04;11.77;;;6.38;;
53010;SDS011;42803;55.762;38.084;2023-02-07T15:43:34;13.90;;;8.00;;